sensor_id;sensor_type;location;lat;lon;timestamp;temperature;humidity
74384;DHT22;62824;52.994;-3.936;2023-08-06T00:00:45;11.70;99.90
74384;DHT22;62824;52.994;-3.936;2023-08-06T00:03:11;11.80;99.90
74384;DHT22;62824;52.994;-3.936;2023-08-06T00:05:36;11.80;99.90
74384;DHT22;62824;52.994;-3.936;2023-08-06T00:08:02;11.80;99.90
74384;DHT22;62824;52.994;-3.936;2023-08-06T00:10:28;11.80;99.90
74384;DHT22;62824;52.994;-3.936;2023-08-06T00:12:54;11.90;99.90
74384;DHT22;62824;52.994;-3.936;2023-08-06T00:15:19;11.90;99.90
74384;DHT22;62824;52.994;-3.936;2023-08-06T00:17:45;11.80;99.90
74384;DHT22;62824;52.994;-3.936;2023-08-06T00:20:11;11.90;99.90
74384;DHT22;62824;52.994;-3.936;2023-08-06T00:22:37;11.90;99.90
74384;DHT22;62824;52.994;-3.936;2023-08-06T00:25:04;11.80;99.90
74384;DHT22;62824;52.994;-3.936;2023-08-06T00:27:30;11.80;99.90
74384;DHT22;62824;52.994;-3.936;2023-08-06T00:29:56;11.80;99.90
74384;DHT22;62824;52.994;-3.936;2023-08-06T00:32:22;11.80;99.90
74384;DHT22;62824;52.994;-3.936;2023-08-06T00:34:48;11.80;99.90
74384;DHT22;62824;52.994;-3.936;2023-08-06T00:37:17;11.70;99.90
74384;DHT22;62824;52.994;-3.936;2023-08-06T00:39:43;11.70;99.90
74384;DHT22;62824;52.994;-3.936;2023-08-06T00:42:10;11.70;99.90
74384;DHT22;62824;52.994;-3.936;2023-08-06T00:44:36;11.80;99.90
74384;DHT22;62824;52.994;-3.936;2023-08-06T00:47:02;11.80;99.90
74384;DHT22;62824;52.994;-3.936;2023-08-06T00:49:28;11.90;99.90
74384;DHT22;62824;52.994;-3.936;2023-08-06T00:51:55;11.80;99.90
74384;DHT22;62824;52.994;-3.936;2023-08-06T00:54:21;11.90;99.90
74384;DHT22;62824;52.994;-3.936;2023-08-06T00:56:48;11.90;99.90
74384;DHT22;62824;52.994;-3.936;2023-08-06T00:59:14;11.90;99.90
74384;DHT22;62824;52.994;-3.936;2023-08-06T01:01:40;11.80;99.90
74384;DHT22;62824;52.994;-3.936;2023-08-06T01:04:06;11.90;99.90
74384;DHT22;62824;52.994;-3.936;2023-08-06T01:07:18;11.90;99.90
74384;DHT22;62824;52.994;-3.936;2023-08-06T01:12:51;12.00;99.90
74384;DHT22;62824;52.994;-3.936;2023-08-06T01:15:23;11.90;99.90
74384;DHT22;62824;52.994;-3.936;2023-08-06T01:17:52;11.90;99.90
74384;DHT22;62824;52.994;-3.936;2023-08-06T01:20:17;11.90;99.90
74384;DHT22;62824;52.994;-3.936;2023-08-06T01:22:43;11.80;99.90
74384;DHT22;62824;52.994;-3.936;2023-08-06T01:25:10;11.80;99.90
74384;DHT22;62824;52.994;-3.936;2023-08-06T01:27:46;11.70;99.90
74384;DHT22;62824;52.994;-3.936;2023-08-06T01:30:16;11.70;99.90
74384;DHT22;62824;52.994;-3.936;2023-08-06T01:32:45;11.70;99.90
74384;DHT22;62824;52.994;-3.936;2023-08-06T01:35:14;11.70;99.90
74384;DHT22;62824;52.994;-3.936;2023-08-06T01:37:41;11.70;99.90
74384;DHT22;62824;52.994;-3.936;2023-08-06T01:40:11;11.80;99.90
74384;DHT22;62824;52.994;-3.936;2023-08-06T01:42:40;11.90;99.90
74384;DHT22;62824;52.994;-3.936;2023-08-06T01:45:09;12.00;99.90
74384;DHT22;62824;52.994;-3.936;2023-08-06T01:47:35;11.90;99.90
74384;DHT22;62824;52.994;-3.936;2023-08-06T01:50:02;11.90;99.90
74384;DHT22;62824;52.994;-3.936;2023-08-06T01:52:28;11.80;99.90
74384;DHT22;62824;52.994;-3.936;2023-08-06T01:54:54;11.80;99.90
74384;DHT22;62824;52.994;-3.936;2023-08-06T01:57:20;11.80;99.90
74384;DHT22;62824;52.994;-3.936;2023-08-06T01:59:46;11.80;99.90
74384;DHT22;62824;52.994;-3.936;2023-08-06T02:02:12;11.70;99.90
74384;DHT22;62824;52.994;-3.936;2023-08-06T02:04:37;11.60;99.90
74384;DHT22;62824;52.994;-3.936;2023-08-06T02:07:04;11.50;99.90
74384;DHT22;62824;52.994;-3.936;2023-08-06T02:09:29;11.60;99.90
74384;DHT22;62824;52.994;-3.936;2023-08-06T02:11:55;11.70;99.90
74384;DHT22;62824;52.994;-3.936;2023-08-06T02:14:21;11.80;99.90
74384;DHT22;62824;52.994;-3.936;2023-08-06T02:16:47;11.90;99.90
74384;DHT22;62824;52.994;-3.936;2023-08-06T02:19:12;11.90;99.90
74384;DHT22;62824;52.994;-3.936;2023-08-06T02:21:38;12.00;99.90
74384;DHT22;62824;52.994;-3.936;2023-08-06T02:24:04;12.00;99.90
74384;DHT22;62824;52.994;-3.936;2023-08-06T02:26:30;11.90;99.90
74384;DHT22;62824;52.994;-3.936;2023-08-06T02:28:56;11.90;99.90
74384;DHT22;62824;52.994;-3.936;2023-08-06T02:31:21;11.80;99.90
74384;DHT22;62824;52.994;-3.936;2023-08-06T02:33:47;11.70;99.90
74384;DHT22;62824;52.994;-3.936;2023-08-06T02:36:13;11.70;99.90
74384;DHT22;62824;52.994;-3.936;2023-08-06T02:38:39;11.60;99.90
74384;DHT22;62824;52.994;-3.936;2023-08-06T02:41:05;11.60;99.90
74384;DHT22;62824;52.994;-3.936;2023-08-06T02:43:31;11.70;99.90
74384;DHT22;62824;52.994;-3.936;2023-08-06T02:45:58;11.80;99.90
74384;DHT22;62824;52.994;-3.936;2023-08-06T02:48:23;11.80;99.90
74384;DHT22;62824;52.994;-3.936;2023-08-06T02:50:49;11.80;99.90
74384;DHT22;62824;52.994;-3.936;2023-08-06T02:53:15;11.90;99.90
74384;DHT22;62824;52.994;-3.936;2023-08-06T02:55:46;11.90;99.90
74384;DHT22;62824;52.994;-3.936;2023-08-06T02:58:14;11.90;99.90
74384;DHT22;62824;52.994;-3.936;2023-08-06T03:00:39;11.90;99.90
74384;DHT22;62824;52.994;-3.936;2023-08-06T03:03:05;11.90;99.90
74384;DHT22;62824;52.994;-3.936;2023-08-06T03:05:31;11.90;99.90
74384;DHT22;62824;52.994;-3.936;2023-08-06T03:07:57;12.00;99.90
74384;DHT22;62824;52.994;-3.936;2023-08-06T03:10:22;12.10;99.90
74384;DHT22;62824;52.994;-3.936;2023-08-06T03:12:48;12.10;99.90
74384;DHT22;62824;52.994;-3.936;2023-08-06T03:15:14;12.10;99.90
74384;DHT22;62824;52.994;-3.936;2023-08-06T03:17:40;12.10;99.90
74384;DHT22;62824;52.994;-3.936;2023-08-06T03:20:06;12.00;99.90
74384;DHT22;62824;52.994;-3.936;2023-08-06T03:22:32;12.00;99.90
74384;DHT22;62824;52.994;-3.936;2023-08-06T03:24:57;12.00;99.90
74384;DHT22;62824;52.994;-3.936;2023-08-06T03:27:23;12.00;99.90
74384;DHT22;62824;52.994;-3.936;2023-08-06T03:29:49;12.00;99.90
74384;DHT22;62824;52.994;-3.936;2023-08-06T03:32:15;12.00;99.90
74384;DHT22;62824;52.994;-3.936;2023-08-06T03:34:41;11.90;99.90
74384;DHT22;62824;52.994;-3.936;2023-08-06T03:37:07;11.80;99.90
74384;DHT22;62824;52.994;-3.936;2023-08-06T03:39:33;11.90;99.90
74384;DHT22;62824;52.994;-3.936;2023-08-06T03:41:59;11.90;99.90
74384;DHT22;62824;52.994;-3.936;2023-08-06T03:44:25;12.00;99.90
74384;DHT22;62824;52.994;-3.936;2023-08-06T03:46:52;12.00;99.90
74384;DHT22;62824;52.994;-3.936;2023-08-06T03:49:18;11.90;99.90
74384;DHT22;62824;52.994;-3.936;2023-08-06T03:51:44;11.80;99.90
74384;DHT22;62824;52.994;-3.936;2023-08-06T03:54:09;11.80;99.90
74384;DHT22;62824;52.994;-3.936;2023-08-06T03:56:35;11.80;99.90
74384;DHT22;62824;52.994;-3.936;2023-08-06T03:59:01;11.70;99.90
74384;DHT22;62824;52.994;-3.936;2023-08-06T04:01:27;11.80;99.90
74384;DHT22;62824;52.994;-3.936;2023-08-06T04:03:53;11.70;99.90
74384;DHT22;62824;52.994;-3.936;2023-08-06T04:06:18;11.80;99.90
74384;DHT22;62824;52.994;-3.936;2023-08-06T04:08:44;11.90;99.90
74384;DHT22;62824;52.994;-3.936;2023-08-06T04:11:10;11.80;99.90
74384;DHT22;62824;52.994;-3.936;2023-08-06T04:13:36;11.80;99.90
74384;DHT22;62824;52.994;-3.936;2023-08-06T04:16:02;11.80;99.90
74384;DHT22;62824;52.994;-3.936;2023-08-06T04:18:28;11.70;99.90
74384;DHT22;62824;52.994;-3.936;2023-08-06T04:20:54;11.70;99.90
74384;DHT22;62824;52.994;-3.936;2023-08-06T04:23:21;11.70;99.90
74384;DHT22;62824;52.994;-3.936;2023-08-06T04:25:46;11.70;99.90
74384;DHT22;62824;52.994;-3.936;2023-08-06T04:28:12;11.50;99.90
74384;DHT22;62824;52.994;-3.936;2023-08-06T04:30:38;11.50;99.90
74384;DHT22;62824;52.994;-3.936;2023-08-06T04:33:04;11.50;99.90
74384;DHT22;62824;52.994;-3.936;2023-08-06T04:35:29;11.50;99.90
74384;DHT22;62824;52.994;-3.936;2023-08-06T04:37:55;11.50;99.90
74384;DHT22;62824;52.994;-3.936;2023-08-06T04:40:21;11.50;99.90
74384;DHT22;62824;52.994;-3.936;2023-08-06T04:42:47;11.40;99.90
74384;DHT22;62824;52.994;-3.936;2023-08-06T04:45:12;11.50;99.90
74384;DHT22;62824;52.994;-3.936;2023-08-06T04:47:38;11.60;99.90
74384;DHT22;62824;52.994;-3.936;2023-08-06T04:50:04;11.60;99.90
74384;DHT22;62824;52.994;-3.936;2023-08-06T04:52:30;11.70;99.90
74384;DHT22;62824;52.994;-3.936;2023-08-06T04:54:57;11.60;99.90
74384;DHT22;62824;52.994;-3.936;2023-08-06T04:57:23;11.60;99.90
74384;DHT22;62824;52.994;-3.936;2023-08-06T04:59:49;11.70;99.90
74384;DHT22;62824;52.994;-3.936;2023-08-06T05:02:15;11.70;99.90
74384;DHT22;62824;52.994;-3.936;2023-08-06T05:04:41;11.80;99.90
74384;DHT22;62824;52.994;-3.936;2023-08-06T05:07:07;11.80;99.90
74384;DHT22;62824;52.994;-3.936;2023-08-06T05:09:33;11.80;99.90
74384;DHT22;62824;52.994;-3.936;2023-08-06T05:12:01;11.80;99.90
74384;DHT22;62824;52.994;-3.936;2023-08-06T05:14:27;11.80;99.90
74384;DHT22;62824;52.994;-3.936;2023-08-06T05:16:53;11.80;99.90
74384;DHT22;62824;52.994;-3.936;2023-08-06T05:19:19;11.80;99.90
74384;DHT22;62824;52.994;-3.936;2023-08-06T05:21:45;11.90;99.90
74384;DHT22;62824;52.994;-3.936;2023-08-06T05:24:10;11.90;99.90
74384;DHT22;62824;52.994;-3.936;2023-08-06T05:26:37;11.80;99.90
74384;DHT22;62824;52.994;-3.936;2023-08-06T05:29:03;11.70;99.90
74384;DHT22;62824;52.994;-3.936;2023-08-06T05:31:29;11.70;99.90
74384;DHT22;62824;52.994;-3.936;2023-08-06T05:33:55;11.80;99.90
74384;DHT22;62824;52.994;-3.936;2023-08-06T05:36:20;11.80;99.90
74384;DHT22;62824;52.994;-3.936;2023-08-06T05:38:47;11.60;99.90
74384;DHT22;62824;52.994;-3.936;2023-08-06T05:41:13;11.60;99.90
74384;DHT22;62824;52.994;-3.936;2023-08-06T05:43:38;11.70;99.90
74384;DHT22;62824;52.994;-3.936;2023-08-06T05:46:05;11.60;99.90
74384;DHT22;62824;52.994;-3.936;2023-08-06T05:48:30;11.60;99.90
74384;DHT22;62824;52.994;-3.936;2023-08-06T05:50:57;11.70;99.90
74384;DHT22;62824;52.994;-3.936;2023-08-06T05:53:24;11.80;99.90
74384;DHT22;62824;52.994;-3.936;2023-08-06T05:55:50;11.80;99.90
74384;DHT22;62824;52.994;-3.936;2023-08-06T05:58:16;11.90;99.90
74384;DHT22;62824;52.994;-3.936;2023-08-06T06:00:42;11.90;99.90
74384;DHT22;62824;52.994;-3.936;2023-08-06T06:03:07;11.90;99.90
74384;DHT22;62824;52.994;-3.936;2023-08-06T06:05:33;11.90;99.90
74384;DHT22;62824;52.994;-3.936;2023-08-06T06:07:59;12.00;99.90
74384;DHT22;62824;52.994;-3.936;2023-08-06T06:10:25;12.00;99.90
74384;DHT22;62824;52.994;-3.936;2023-08-06T06:12:50;12.10;99.90
74384;DHT22;62824;52.994;-3.936;2023-08-06T06:15:16;12.10;99.90
74384;DHT22;62824;52.994;-3.936;2023-08-06T06:17:42;12.20;99.90
74384;DHT22;62824;52.994;-3.936;2023-08-06T06:20:08;12.30;99.90
74384;DHT22;62824;52.994;-3.936;2023-08-06T06:22:34;12.30;99.90
74384;DHT22;62824;52.994;-3.936;2023-08-06T06:25:00;12.30;99.90
74384;DHT22;62824;52.994;-3.936;2023-08-06T06:27:25;12.30;99.90
74384;DHT22;62824;52.994;-3.936;2023-08-06T06:29:51;12.20;99.90
74384;DHT22;62824;52.994;-3.936;2023-08-06T06:32:18;12.30;99.90
74384;DHT22;62824;52.994;-3.936;2023-08-06T06:34:43;12.40;99.90
74384;DHT22;62824;52.994;-3.936;2023-08-06T06:37:09;12.40;99.90
74384;DHT22;62824;52.994;-3.936;2023-08-06T06:39:35;12.50;99.90
74384;DHT22;62824;52.994;-3.936;2023-08-06T06:42:01;12.50;99.90
74384;DHT22;62824;52.994;-3.936;2023-08-06T06:44:26;12.60;99.90
74384;DHT22;62824;52.994;-3.936;2023-08-06T06:46:52;12.50;99.90
74384;DHT22;62824;52.994;-3.936;2023-08-06T06:49:18;12.50;99.90
74384;DHT22;62824;52.994;-3.936;2023-08-06T06:51:44;12.40;99.90
74384;DHT22;62824;52.994;-3.936;2023-08-06T06:54:10;12.40;99.90
74384;DHT22;62824;52.994;-3.936;2023-08-06T06:56:35;12.40;99.90
74384;DHT22;62824;52.994;-3.936;2023-08-06T06:59:01;12.50;99.90
74384;DHT22;62824;52.994;-3.936;2023-08-06T07:01:27;12.60;99.90
74384;DHT22;62824;52.994;-3.936;2023-08-06T07:03:53;12.90;99.90
74384;DHT22;62824;52.994;-3.936;2023-08-06T07:06:18;13.00;99.90
74384;DHT22;62824;52.994;-3.936;2023-08-06T07:08:45;13.10;99.90
74384;DHT22;62824;52.994;-3.936;2023-08-06T07:11:10;13.20;99.90
74384;DHT22;62824;52.994;-3.936;2023-08-06T07:13:36;13.20;99.90
74384;DHT22;62824;52.994;-3.936;2023-08-06T07:16:02;13.10;99.90
74384;DHT22;62824;52.994;-3.936;2023-08-06T07:18:29;13.10;99.90
74384;DHT22;62824;52.994;-3.936;2023-08-06T07:20:55;12.90;99.90
74384;DHT22;62824;52.994;-3.936;2023-08-06T07:23:22;12.90;99.90
74384;DHT22;62824;52.994;-3.936;2023-08-06T07:25:48;12.90;99.90
74384;DHT22;62824;52.994;-3.936;2023-08-06T07:28:15;13.20;99.90
74384;DHT22;62824;52.994;-3.936;2023-08-06T07:30:41;14.10;99.90
74384;DHT22;62824;52.994;-3.936;2023-08-06T07:33:07;15.00;99.90
74384;DHT22;62824;52.994;-3.936;2023-08-06T07:35:33;15.70;99.90
74384;DHT22;62824;52.994;-3.936;2023-08-06T07:37:59;15.70;99.90
74384;DHT22;62824;52.994;-3.936;2023-08-06T07:40:24;15.30;99.90
74384;DHT22;62824;52.994;-3.936;2023-08-06T07:42:51;15.00;99.90
74384;DHT22;62824;52.994;-3.936;2023-08-06T07:45:16;14.80;99.90
74384;DHT22;62824;52.994;-3.936;2023-08-06T07:47:42;14.60;99.90
74384;DHT22;62824;52.994;-3.936;2023-08-06T07:50:09;14.50;99.90
74384;DHT22;62824;52.994;-3.936;2023-08-06T07:52:35;14.30;99.90
74384;DHT22;62824;52.994;-3.936;2023-08-06T07:55:01;14.10;99.90
74384;DHT22;62824;52.994;-3.936;2023-08-06T07:57:31;14.10;99.90
74384;DHT22;62824;52.994;-3.936;2023-08-06T07:59:57;14.10;99.90
74384;DHT22;62824;52.994;-3.936;2023-08-06T08:02:23;14.00;99.90
74384;DHT22;62824;52.994;-3.936;2023-08-06T08:04:48;14.30;99.90
74384;DHT22;62824;52.994;-3.936;2023-08-06T08:07:14;14.60;99.90
74384;DHT22;62824;52.994;-3.936;2023-08-06T08:09:40;14.90;99.90
74384;DHT22;62824;52.994;-3.936;2023-08-06T08:12:06;14.70;99.90
74384;DHT22;62824;52.994;-3.936;2023-08-06T08:14:32;14.80;99.90
74384;DHT22;62824;52.994;-3.936;2023-08-06T08:17:03;15.10;99.90
74384;DHT22;62824;52.994;-3.936;2023-08-06T08:19:29;15.40;99.90
74384;DHT22;62824;52.994;-3.936;2023-08-06T08:21:55;15.70;99.90
74384;DHT22;62824;52.994;-3.936;2023-08-06T08:24:22;16.30;99.90
74384;DHT22;62824;52.994;-3.936;2023-08-06T08:26:53;16.40;99.90
74384;DHT22;62824;52.994;-3.936;2023-08-06T08:29:22;16.20;99.90
74384;DHT22;62824;52.994;-3.936;2023-08-06T08:31:49;16.30;99.90
74384;DHT22;62824;52.994;-3.936;2023-08-06T08:34:18;16.50;99.90
74384;DHT22;62824;52.994;-3.936;2023-08-06T08:36:44;16.50;99.90
74384;DHT22;62824;52.994;-3.936;2023-08-06T08:39:13;16.70;99.90
74384;DHT22;62824;52.994;-3.936;2023-08-06T08:41:39;17.00;99.90
74384;DHT22;62824;52.994;-3.936;2023-08-06T08:44:08;17.10;92.70
74384;DHT22;62824;52.994;-3.936;2023-08-06T08:46:40;17.20;92.00
74384;DHT22;62824;52.994;-3.936;2023-08-06T08:49:06;17.40;92.10
74384;DHT22;62824;52.994;-3.936;2023-08-06T08:51:34;17.40;90.50
74384;DHT22;62824;52.994;-3.936;2023-08-06T08:54:03;17.20;79.00
74384;DHT22;62824;52.994;-3.936;2023-08-06T08:56:29;16.80;86.20
74384;DHT22;62824;52.994;-3.936;2023-08-06T08:58:54;16.70;95.50
74384;DHT22;62824;52.994;-3.936;2023-08-06T09:01:22;16.80;96.50
74384;DHT22;62824;52.994;-3.936;2023-08-06T09:03:48;16.50;99.90
74384;DHT22;62824;52.994;-3.936;2023-08-06T09:06:15;16.40;96.50
74384;DHT22;62824;52.994;-3.936;2023-08-06T09:08:51;16.40;94.10
74384;DHT22;62824;52.994;-3.936;2023-08-06T09:11:19;16.00;92.20
74384;DHT22;62824;52.994;-3.936;2023-08-06T09:13:47;16.00;94.80
74384;DHT22;62824;52.994;-3.936;2023-08-06T09:16:13;16.00;97.00
74384;DHT22;62824;52.994;-3.936;2023-08-06T09:18:39;16.10;99.10
74384;DHT22;62824;52.994;-3.936;2023-08-06T09:21:05;16.20;98.40
74384;DHT22;62824;52.994;-3.936;2023-08-06T09:23:31;16.20;99.50
74384;DHT22;62824;52.994;-3.936;2023-08-06T09:25:59;16.20;98.90
74384;DHT22;62824;52.994;-3.936;2023-08-06T09:28:36;16.00;96.80
74384;DHT22;62824;52.994;-3.936;2023-08-06T09:31:04;16.00;99.50
74384;DHT22;62824;52.994;-3.936;2023-08-06T09:33:30;16.00;99.90
74384;DHT22;62824;52.994;-3.936;2023-08-06T09:35:56;15.80;99.90
74384;DHT22;62824;52.994;-3.936;2023-08-06T09:38:21;15.50;99.90
74384;DHT22;62824;52.994;-3.936;2023-08-06T09:40:47;15.50;99.90
74384;DHT22;62824;52.994;-3.936;2023-08-06T09:43:13;15.50;99.90
74384;DHT22;62824;52.994;-3.936;2023-08-06T09:45:39;15.50;99.90
74384;DHT22;62824;52.994;-3.936;2023-08-06T09:48:07;15.60;99.90
74384;DHT22;62824;52.994;-3.936;2023-08-06T09:50:37;16.00;99.90
74384;DHT22;62824;52.994;-3.936;2023-08-06T09:53:07;16.50;99.90
74384;DHT22;62824;52.994;-3.936;2023-08-06T09:55:36;16.60;99.90
74384;DHT22;62824;52.994;-3.936;2023-08-06T09:58:02;16.90;99.90
74384;DHT22;62824;52.994;-3.936;2023-08-06T10:00:29;17.10;99.90
74384;DHT22;62824;52.994;-3.936;2023-08-06T10:03:00;17.30;94.00
74384;DHT22;62824;52.994;-3.936;2023-08-06T10:05:26;17.60;99.90
74384;DHT22;62824;52.994;-3.936;2023-08-06T10:07:53;17.50;82.90
74384;DHT22;62824;52.994;-3.936;2023-08-06T10:10:19;17.40;84.40
74384;DHT22;62824;52.994;-3.936;2023-08-06T10:12:49;17.40;93.10
74384;DHT22;62824;52.994;-3.936;2023-08-06T10:15:22;17.40;90.50
74384;DHT22;62824;52.994;-3.936;2023-08-06T10:17:53;17.60;86.00
74384;DHT22;62824;52.994;-3.936;2023-08-06T10:20:20;17.70;95.20
74384;DHT22;62824;52.994;-3.936;2023-08-06T10:23:06;17.70;84.00
74384;DHT22;62824;52.994;-3.936;2023-08-06T10:25:34;17.40;86.80
74384;DHT22;62824;52.994;-3.936;2023-08-06T10:28:01;17.50;92.40
74384;DHT22;62824;52.994;-3.936;2023-08-06T10:30:33;17.50;85.70
74384;DHT22;62824;52.994;-3.936;2023-08-06T10:33:03;17.50;79.60
74384;DHT22;62824;52.994;-3.936;2023-08-06T10:35:43;17.40;90.90
74384;DHT22;62824;52.994;-3.936;2023-08-06T10:38:17;17.00;83.50
74384;DHT22;62824;52.994;-3.936;2023-08-06T10:41:14;16.70;92.80
74384;DHT22;62824;52.994;-3.936;2023-08-06T10:43:36;16.80;97.60
74384;DHT22;62824;52.994;-3.936;2023-08-06T10:46:10;17.10;98.70
74384;DHT22;62824;52.994;-3.936;2023-08-06T10:48:37;17.30;99.90
74384;DHT22;62824;52.994;-3.936;2023-08-06T10:51:10;17.50;99.90
74384;DHT22;62824;52.994;-3.936;2023-08-06T10:53:37;18.30;94.50
74384;DHT22;62824;52.994;-3.936;2023-08-06T10:56:12;18.90;76.30
74384;DHT22;62824;52.994;-3.936;2023-08-06T10:58:38;19.10;74.80
74384;DHT22;62824;52.994;-3.936;2023-08-06T11:01:04;19.00;59.60
74384;DHT22;62824;52.994;-3.936;2023-08-06T11:03:32;18.80;63.70
74384;DHT22;62824;52.994;-3.936;2023-08-06T11:05:58;18.50;73.00
74384;DHT22;62824;52.994;-3.936;2023-08-06T11:08:28;18.10;83.70
74384;DHT22;62824;52.994;-3.936;2023-08-06T11:10:54;17.80;75.20
74384;DHT22;62824;52.994;-3.936;2023-08-06T11:13:21;17.70;92.20
74384;DHT22;62824;52.994;-3.936;2023-08-06T11:15:47;17.70;93.40
74384;DHT22;62824;52.994;-3.936;2023-08-06T11:18:12;17.40;96.50
74384;DHT22;62824;52.994;-3.936;2023-08-06T11:20:39;17.30;99.90
74384;DHT22;62824;52.994;-3.936;2023-08-06T11:23:05;17.00;99.90
74384;DHT22;62824;52.994;-3.936;2023-08-06T11:25:35;16.70;99.90
74384;DHT22;62824;52.994;-3.936;2023-08-06T11:28:01;16.50;99.90
74384;DHT22;62824;52.994;-3.936;2023-08-06T11:30:27;16.60;99.90
74384;DHT22;62824;52.994;-3.936;2023-08-06T11:32:53;16.80;99.90
74384;DHT22;62824;52.994;-3.936;2023-08-06T11:35:19;16.90;99.90
74384;DHT22;62824;52.994;-3.936;2023-08-06T11:37:45;17.00;99.90
74384;DHT22;62824;52.994;-3.936;2023-08-06T11:40:11;17.10;99.90
74384;DHT22;62824;52.994;-3.936;2023-08-06T11:42:38;17.10;99.90
74384;DHT22;62824;52.994;-3.936;2023-08-06T11:45:04;17.10;99.90
74384;DHT22;62824;52.994;-3.936;2023-08-06T11:47:30;17.20;99.90
74384;DHT22;62824;52.994;-3.936;2023-08-06T11:49:56;17.40;99.90
74384;DHT22;62824;52.994;-3.936;2023-08-06T11:52:23;18.00;94.60
74384;DHT22;62824;52.994;-3.936;2023-08-06T11:55:25;18.40;78.60
74384;DHT22;62824;52.994;-3.936;2023-08-06T11:57:51;17.80;81.70
74384;DHT22;62824;52.994;-3.936;2023-08-06T12:00:17;17.70;91.50
74384;DHT22;62824;52.994;-3.936;2023-08-06T12:02:51;17.80;84.50
74384;DHT22;62824;52.994;-3.936;2023-08-06T12:05:22;17.80;82.20
74384;DHT22;62824;52.994;-3.936;2023-08-06T12:07:57;17.80;86.00
74384;DHT22;62824;52.994;-3.936;2023-08-06T12:10:29;18.00;74.20
74384;DHT22;62824;52.994;-3.936;2023-08-06T12:12:55;18.20;70.50
74384;DHT22;62824;52.994;-3.936;2023-08-06T12:15:21;18.40;64.60
74384;DHT22;62824;52.994;-3.936;2023-08-06T12:17:47;18.50;52.80
74384;DHT22;62824;52.994;-3.936;2023-08-06T12:20:13;18.50;47.70
74384;DHT22;62824;52.994;-3.936;2023-08-06T12:22:39;19.00;48.20
74384;DHT22;62824;52.994;-3.936;2023-08-06T12:25:11;19.90;31.90
74384;DHT22;62824;52.994;-3.936;2023-08-06T12:27:38;19.80;30.80
74384;DHT22;62824;52.994;-3.936;2023-08-06T12:30:08;20.80;24.20
74384;DHT22;62824;52.994;-3.936;2023-08-06T12:32:42;21.50;22.20
74384;DHT22;62824;52.994;-3.936;2023-08-06T12:35:08;22.30;19.30
74384;DHT22;62824;52.994;-3.936;2023-08-06T12:37:35;21.60;17.90
74384;DHT22;62824;52.994;-3.936;2023-08-06T12:40:01;21.30;18.30
74384;DHT22;62824;52.994;-3.936;2023-08-06T12:42:26;21.80;18.20
74384;DHT22;62824;52.994;-3.936;2023-08-06T12:44:52;22.20;17.20
74384;DHT22;62824;52.994;-3.936;2023-08-06T12:47:19;21.90;17.20
74384;DHT22;62824;52.994;-3.936;2023-08-06T12:49:45;22.20;16.80
74384;DHT22;62824;52.994;-3.936;2023-08-06T12:52:11;22.60;14.50
74384;DHT22;62824;52.994;-3.936;2023-08-06T12:54:40;22.10;14.30
74384;DHT22;62824;52.994;-3.936;2023-08-06T12:57:06;21.70;14.90
74384;DHT22;62824;52.994;-3.936;2023-08-06T12:59:32;21.30;16.60
74384;DHT22;62824;52.994;-3.936;2023-08-06T13:01:59;21.10;16.90
74384;DHT22;62824;52.994;-3.936;2023-08-06T13:04:25;20.70;17.90
74384;DHT22;62824;52.994;-3.936;2023-08-06T13:06:51;20.50;18.80
74384;DHT22;62824;52.994;-3.936;2023-08-06T13:09:22;20.50;19.20
74384;DHT22;62824;52.994;-3.936;2023-08-06T13:11:50;20.50;18.70
74384;DHT22;62824;52.994;-3.936;2023-08-06T13:14:16;20.40;18.50
74384;DHT22;62824;52.994;-3.936;2023-08-06T13:16:43;20.20;19.00
74384;DHT22;62824;52.994;-3.936;2023-08-06T13:19:10;20.00;20.80
74384;DHT22;62824;52.994;-3.936;2023-08-06T13:22:00;19.80;21.10
74384;DHT22;62824;52.994;-3.936;2023-08-06T13:24:28;19.80;22.70
74384;DHT22;62824;52.994;-3.936;2023-08-06T13:26:54;19.90;21.10
74384;DHT22;62824;52.994;-3.936;2023-08-06T13:29:20;20.20;20.30
74384;DHT22;62824;52.994;-3.936;2023-08-06T13:31:46;19.70;21.40
74384;DHT22;62824;52.994;-3.936;2023-08-06T13:34:11;19.90;24.00
74384;DHT22;62824;52.994;-3.936;2023-08-06T13:36:37;19.90;22.80
74384;DHT22;62824;52.994;-3.936;2023-08-06T13:39:03;19.60;22.80
74384;DHT22;62824;52.994;-3.936;2023-08-06T13:41:31;19.50;24.30
74384;DHT22;62824;52.994;-3.936;2023-08-06T13:43:57;19.90;25.00
74384;DHT22;62824;52.994;-3.936;2023-08-06T13:46:23;20.00;21.90
74384;DHT22;62824;52.994;-3.936;2023-08-06T13:48:49;19.50;22.20
74384;DHT22;62824;52.994;-3.936;2023-08-06T13:51:18;19.30;22.50
74384;DHT22;62824;52.994;-3.936;2023-08-06T13:53:44;19.40;22.30
74384;DHT22;62824;52.994;-3.936;2023-08-06T13:56:10;19.40;22.10
74384;DHT22;62824;52.994;-3.936;2023-08-06T13:58:37;19.70;21.80
74384;DHT22;62824;52.994;-3.936;2023-08-06T14:01:03;19.20;23.00
74384;DHT22;62824;52.994;-3.936;2023-08-06T14:03:28;19.30;24.70
74384;DHT22;62824;52.994;-3.936;2023-08-06T14:05:54;19.30;25.50
74384;DHT22;62824;52.994;-3.936;2023-08-06T14:08:23;19.30;22.30
74384;DHT22;62824;52.994;-3.936;2023-08-06T14:10:51;19.10;23.00
74384;DHT22;62824;52.994;-3.936;2023-08-06T14:13:16;18.90;25.70
74384;DHT22;62824;52.994;-3.936;2023-08-06T14:15:42;19.10;25.90
74384;DHT22;62824;52.994;-3.936;2023-08-06T14:18:13;19.60;22.40
74384;DHT22;62824;52.994;-3.936;2023-08-06T14:20:39;19.90;21.70
74384;DHT22;62824;52.994;-3.936;2023-08-06T14:23:05;20.50;20.30
74384;DHT22;62824;52.994;-3.936;2023-08-06T14:25:31;20.80;18.60
74384;DHT22;62824;52.994;-3.936;2023-08-06T14:27:57;20.80;16.40
74384;DHT22;62824;52.994;-3.936;2023-08-06T14:30:23;20.90;18.30
74384;DHT22;62824;52.994;-3.936;2023-08-06T14:32:49;20.70;16.70
74384;DHT22;62824;52.994;-3.936;2023-08-06T14:35:15;20.30;16.90
74384;DHT22;62824;52.994;-3.936;2023-08-06T14:37:40;20.30;18.50
74384;DHT22;62824;52.994;-3.936;2023-08-06T14:40:07;20.00;19.50
74384;DHT22;62824;52.994;-3.936;2023-08-06T14:42:34;20.10;20.10
74384;DHT22;62824;52.994;-3.936;2023-08-06T14:45:00;19.90;20.30
74384;DHT22;62824;52.994;-3.936;2023-08-06T14:47:25;20.10;20.20
74384;DHT22;62824;52.994;-3.936;2023-08-06T14:49:51;20.00;21.50
74384;DHT22;62824;52.994;-3.936;2023-08-06T14:52:17;20.20;19.90
74384;DHT22;62824;52.994;-3.936;2023-08-06T14:54:43;20.20;20.20
74384;DHT22;62824;52.994;-3.936;2023-08-06T14:57:11;20.10;19.90
74384;DHT22;62824;52.994;-3.936;2023-08-06T14:59:38;20.10;20.00
74384;DHT22;62824;52.994;-3.936;2023-08-06T15:02:05;20.10;19.20
74384;DHT22;62824;52.994;-3.936;2023-08-06T15:04:31;20.00;20.20
74384;DHT22;62824;52.994;-3.936;2023-08-06T15:06:57;20.00;19.30
74384;DHT22;62824;52.994;-3.936;2023-08-06T15:09:22;20.00;19.50
74384;DHT22;62824;52.994;-3.936;2023-08-06T15:11:49;20.50;19.50
74384;DHT22;62824;52.994;-3.936;2023-08-06T15:14:15;20.30;19.70
74384;DHT22;62824;52.994;-3.936;2023-08-06T15:16:49;20.00;19.50